Time;durP1;ratioP1;P1;durP2;ratioP2;P2;SDS_P1;SDS_P2;PMS_P1;PMS_P2;Temp;Humidity;BMP_temperature;BMP_pressure;BME280_temperature;BME280_humidity;BME280_pressure;Samples;Min_cycle;Max_cycle;Signal;HPM_P1;HPM_P2
2021/07/11 00:00:45;;;;;;;10.58;6.17;;;;;;;16.41;85.12;95779.78;1770832;81;21041;-59
2021/07/11 00:03:13;;;;;;;10.40;5.80;;;;;;;16.42;84.71;95775.32;1770533;81;21030;-59
2021/07/11 00:05:40;;;;;;;7.83;6.30;;;;;;;16.42;85.63;95776.66;1770396;81;21034;-59
2021/07/11 00:08:07;;;;;;;11.22;6.12;;;;;;;16.43;85.68;95773.08;1770484;81;21077;-59
2021/07/11 00:10:33;;;;;;;11.85;6.08;;;;;;;16.47;86.00;95773.81;1770964;81;20986;-59
2021/07/11 00:13:00;;;;;;;10.65;5.40;;;;;;;16.46;85.18;95774.76;1770523;81;20983;-59
2021/07/11 00:15:27;;;;;;;8.43;6.12;;;;;;;16.41;85.02;95771.80;1769818;81;21013;-59
2021/07/11 00:17:56;;;;;;;12.13;5.60;;;;;;;16.39;85.03;95765.66;1764149;81;21024;-59
2021/07/11 00:20:25;;;;;;;11.65;5.65;;;;;;;16.31;85.75;95769.55;1763892;81;21030;-59
2021/07/11 00:22:52;;;;;;;15.98;6.25;;;;;;;16.30;85.99;95767.33;1763821;81;21010;-59
2021/07/11 00:25:19;;;;;;;9.98;5.58;;;;;;;16.23;85.24;95761.39;1763681;81;21103;-59
2021/07/11 00:27:47;;;;;;;7.72;5.50;;;;;;;16.23;85.24;95761.39;1763949;81;21065;-59
2021/07/11 00:30:16;;;;;;;10.68;6.20;;;;;;;16.16;85.10;95761.69;1763589;81;21070;-59
2021/07/11 00:32:44;;;;;;;8.40;5.42;;;;;;;16.16;85.10;95761.69;1764044;81;20998;-59
2021/07/11 00:35:12;;;;;;;5.00;4.20;;;;;;;16.12;85.05;95756.06;1763735;81;21086;-59
2021/07/11 00:37:39;;;;;;;11.08;5.05;;;;;;;16.00;85.02;95752.05;1763716;81;21489;-59
2021/07/11 00:40:08;;;;;;;5.92;5.08;;;;;;;15.90;85.42;95746.67;1763622;81;21101;-59
2021/07/11 00:42:37;;;;;;;12.75;5.90;;;;;;;15.90;85.73;95747.56;1763844;81;21058;-58
2021/07/11 00:45:06;;;;;;;11.35;5.87;;;;;;;15.95;86.18;95746.03;1763712;81;21143;-59
2021/07/11 00:47:42;;;;;;;13.60;6.25;;;;;;;16.03;86.12;95745.31;1764114;81;21019;-59
2021/07/11 00:50:14;;;;;;;11.30;5.58;;;;;;;16.05;85.72;95749.22;1763789;81;21090;-58
2021/07/11 00:52:42;;;;;;;11.95;6.17;;;;;;;16.08;85.57;95737.16;1764068;81;21038;-59
2021/07/11 00:55:12;;;;;;;11.15;6.17;;;;;;;16.13;85.42;95743.17;1763594;81;21015;-59
2021/07/11 00:57:39;;;;;;;8.90;6.12;;;;;;;16.09;85.41;95741.54;1763576;81;21483;-59
2021/07/11 01:00:10;;;;;;;10.23;5.87;;;;;;;16.07;84.81;95739.39;1761025;81;21101;-59
2021/07/11 01:03:05;;;;;;;10.88;5.25;;;;;;;16.05;84.71;95740.80;1761239;81;21006;-59
2021/07/11 01:05:33;;;;;;;7.70;5.75;;;;;;;16.08;84.76;95735.83;1763562;81;21095;-59
2021/07/11 01:08:11;;;;;;;10.03;5.28;;;;;;;16.07;84.62;95724.75;1764098;81;21042;-59
2021/07/11 01:11:01;;;;;;;11.28;6.40;;;;;;;16.10;84.55;95723.30;1761812;81;21070;-58
2021/07/11 01:13:29;;;;;;;10.78;6.05;;;;;;;16.07;84.63;95723.42;1757287;81;21050;-58
2021/07/11 01:16:01;;;;;;;9.78;5.70;;;;;;;16.08;84.61;95727.38;1763549;81;21096;-59
2021/07/11 01:18:30;;;;;;;14.47;6.03;;;;;;;16.14;84.61;95719.14;1763733;81;21030;-59
2021/07/11 01:21:02;;;;;;;7.00;4.75;;;;;;;16.08;83.76;95718.53;1763899;81;21046;-59
2021/07/11 01:23:57;;;;;;;7.87;5.72;;;;;;;15.97;84.05;95718.44;1763849;81;21082;-59
2021/07/11 01:26:27;;;;;;;9.18;6.00;;;;;;;15.93;83.79;95722.16;1763912;81;21094;-59
2021/07/11 01:28:56;;;;;;;7.30;5.10;;;;;;;15.88;83.82;95716.14;1763728;81;21482;-59
2021/07/11 01:31:26;;;;;;;11.10;5.90;;;;;;;15.79;83.69;95713.34;1735918;81;21026;-59
2021/07/11 01:33:57;;;;;;;9.05;5.80;;;;;;;15.73;84.58;95712.26;1763631;81;21077;-59
2021/07/11 01:36:26;;;;;;;9.25;6.05;;;;;;;15.80;85.15;95715.57;1763951;81;21097;-59
2021/07/11 01:38:55;;;;;;;10.58;5.67;;;;;;;15.81;84.32;95717.30;1763765;81;21089;-61
2021/07/11 01:41:27;;;;;;;13.43;5.85;;;;;;;15.76;84.26;95709.95;1762858;81;21014;-59
2021/07/11 01:43:56;;;;;;;9.63;5.37;;;;;;;15.79;84.80;95714.67;1763861;81;21540;-59
2021/07/11 01:46:25;;;;;;;8.73;5.10;;;;;;;15.86;85.08;95714.00;1763888;81;21050;-59
2021/07/11 01:48:53;;;;;;;8.35;5.75;;;;;;;15.84;84.41;95713.66;1763980;81;21098;-59
2021/07/11 01:51:25;;;;;;;13.98;5.75;;;;;;;15.72;84.06;95713.20;1763959;81;20991;-59
2021/07/11 01:53:53;;;;;;;13.13;6.30;;;;;;;15.71;84.06;95714.09;1763728;81;21090;-59
2021/07/11 01:56:21;;;;;;;9.95;5.50;;;;;;;15.58;84.44;95710.13;1763774;81;21058;-59
2021/07/11 01:58:48;;;;;;;8.88;5.25;;;;;;;15.57;84.53;95714.59;1763821;81;21476;-59
2021/07/11 02:01:23;;;;;;;8.83;5.70;;;;;;;15.50;83.92;95714.87;1763510;81;21034;-59
2021/07/11 02:03:48;;;;;;;7.80;5.47;;;;;;;15.47;84.27;95713.62;1763339;81;21022;-59
2021/07/11 02:06:15;;;;;;;9.75;5.85;;;;;;;15.43;84.18;95712.88;1763552;81;21484;-59
2021/07/11 02:08:44;;;;;;;9.30;5.65;;;;;;;15.41;84.40;95716.52;1763202;81;21564;-59
2021/07/11 02:11:14;;;;;;;7.87;5.80;;;;;;;15.38;84.55;95719.29;1761940;81;21058;-59
2021/07/11 02:13:57;;;;;;;10.88;5.87;;;;;;;15.30;84.27;95716.44;1761884;81;21081;-59
2021/07/11 02:16:35;;;;;;;7.87;5.30;;;;;;;15.28;85.01;95717.41;1737165;81;21555;-59
2021/07/11 02:19:06;;;;;;;10.30;5.42;;;;;;;15.27;84.65;95715.66;1765570;81;21492;-59
2021/07/11 02:21:34;;;;;;;10.95;5.50;;;;;;;15.30;84.60;95717.77;1770373;81;21026;-59
2021/07/11 02:24:05;;;;;;;7.78;5.87;;;;;;;15.30;84.46;95723.08;1770421;81;21098;-59
2021/07/11 02:26:35;;;;;;;9.38;5.75;;;;;;;15.33;84.36;95717.65;1770746;81;21484;-59
2021/07/11 02:29:05;;;;;;;10.53;5.55;;;;;;;15.33;84.18;95718.98;1770277;81;21090;-58
2021/07/11 02:31:36;;;;;;;10.95;5.60;;;;;;;15.29;84.11;95723.98;1770647;81;21037;-59
2021/07/11 02:34:04;;;;;;;14.40;5.47;;;;;;;15.34;84.23;95719.37;1770598;81;21025;-58
2021/07/11 02:36:33;;;;;;;7.70;5.83;;;;;;;15.33;84.63;95715.45;1770822;81;21036;-59
2021/07/11 02:39:06;;;;;;;8.15;5.70;;;;;;;15.35;84.59;95721.59;1770616;81;21073;-59
2021/07/11 02:41:40;;;;;;;7.85;5.35;;;;;;;15.29;84.19;95723.12;1770820;81;21500;-59
2021/07/11 02:44:11;;;;;;;9.83;5.53;;;;;;;15.24;84.50;95719.29;1770640;81;21524;-59
2021/07/11 02:46:43;;;;;;;10.27;5.40;;;;;;;15.19;84.10;95725.22;1770672;81;21106;-59
2021/07/11 02:49:14;;;;;;;15.63;5.75;;;;;;;15.13;84.51;95721.00;1770789;81;21041;-59
2021/07/11 02:51:47;;;;;;;8.15;5.00;;;;;;;15.12;84.30;95723.26;1738696;81;20990;-59
2021/07/11 02:54:18;;;;;;;9.98;4.97;;;;;;;15.08;84.10;95723.41;1749455;81;21030;-59
2021/07/11 02:56:49;;;;;;;10.13;5.25;;;;;;;15.01;84.86;95724.07;1770755;81;21053;-59
2021/07/11 02:59:16;;;;;;;8.90;5.92;;;;;;;15.10;85.08;95728.22;1770354;81;21065;-59
2021/07/11 03:01:45;;;;;;;9.68;5.53;;;;;;;15.12;85.00;95724.59;1770947;81;21090;-59
2021/07/11 03:04:17;;;;;;;9.15;5.42;;;;;;;15.11;84.55;95724.63;1770609;81;21013;-59
2021/07/11 03:06:44;;;;;;;7.47;4.95;;;;;;;15.13;84.42;95722.80;1770824;81;21025;-58
2021/07/11 03:09:12;;;;;;;6.12;4.95;;;;;;;15.07;84.43;95720.36;1770852;81;21006;-59
2021/07/11 03:11:42;;;;;;;5.28;4.78;;;;;;;15.05;84.52;95727.05;1770436;81;21083;-59
2021/07/11 03:14:11;;;;;;;7.97;5.60;;;;;;;15.01;84.35;95730.71;1770667;81;20994;-59
2021/07/11 03:16:43;;;;;;;12.20;5.17;;;;;;;14.97;85.01;95732.19;1769122;81;21041;-59
2021/07/11 03:19:11;;;;;;;5.87;4.50;;;;;;;14.96;85.34;95728.67;1770800;81;20978;-59
2021/07/11 03:21:39;;;;;;;4.50;4.10;;;;;;;15.04;85.37;95725.75;1770437;81;21121;-59
2021/07/11 03:24:07;;;;;;;9.93;5.17;;;;;;;15.11;85.30;95722.83;1770948;81;21014;-59
2021/07/11 03:26:35;;;;;;;5.45;4.95;;;;;;;15.18;85.38;95722.64;1770700;81;20983;-59
2021/07/11 03:29:09;;;;;;;6.62;5.17;;;;;;;15.18;85.16;95726.63;1763185;81;21073;-59
2021/07/11 03:31:36;;;;;;;6.33;4.95;;;;;;;15.23;85.25;95732.65;1770631;81;21153;-59
2021/07/11 03:34:04;;;;;;;7.70;4.80;;;;;;;15.33;85.22;95729.61;1770552;81;21027;-59
2021/07/11 03:36:33;;;;;;;6.90;5.37;;;;;;;15.46;85.18;95731.38;1770702;81;21069;-59
2021/07/11 03:39:05;;;;;;;7.03;4.92;;;;;;;15.61;84.74;95733.09;1768139;81;21477;-59
2021/07/11 03:41:38;;;;;;;8.43;5.15;;;;;;;15.65;84.04;95734.26;1770824;81;21563;-58
2021/07/11 03:44:07;;;;;;;8.97;5.37;;;;;;;15.61;84.22;95731.76;1771071;81;21118;-59
2021/07/11 03:46:38;;;;;;;9.75;5.97;;;;;;;15.56;84.37;95732.78;1770612;81;20994;-58
2021/07/11 03:49:08;;;;;;;8.83;5.12;;;;;;;15.64;84.59;95737.82;1770662;81;21051;-59
2021/07/11 03:51:39;;;;;;;5.85;4.78;;;;;;;15.64;84.52;95736.95;1770762;81;20998;-59
2021/07/11 03:54:09;;;;;;;12.95;4.97;;;;;;;15.65;84.60;95736.02;1770608;81;21042;-59
2021/07/11 03:56:37;;;;;;;5.95;4.87;;;;;;;15.74;84.66;95734.41;1770768;81;21021;-59
2021/07/11 03:59:08;;;;;;;6.62;5.55;;;;;;;15.83;84.29;95742.05;1770317;81;21026;-59
2021/07/11 04:01:37;;;;;;;5.62;4.87;;;;;;;15.91;83.90;95737.31;1770730;81;21053;-59
2021/07/11 04:04:10;;;;;;;9.23;5.25;;;;;;;15.98;84.13;95735.30;1770544;81;21027;-59
2021/07/11 04:06:37;;;;;;;8.10;5.60;;;;;;;16.14;83.85;95731.59;1770078;81;21080;-59
2021/07/11 04:09:05;;;;;;;7.05;5.35;;;;;;;16.21;83.94;95741.08;1770525;81;21022;-59
2021/07/11 04:11:35;;;;;;;7.65;6.03;;;;;;;16.32;83.45;95740.19;1770666;81;21014;-59
2021/07/11 04:14:03;;;;;;;7.58;5.50;;;;;;;16.44;83.55;95742.38;1770584;81;21070;-59
2021/07/11 04:16:33;;;;;;;5.92;5.28;;;;;;;16.59;83.72;95732.05;1770165;81;21041;-59
2021/07/11 04:19:02;;;;;;;5.80;5.17;;;;;;;16.72;83.39;95739.94;1764023;81;21010;-59
2021/07/11 04:21:31;;;;;;;8.30;5.30;;;;;;;16.84;82.84;95742.15;1763964;81;21437;-59
2021/07/11 04:23:59;;;;;;;6.85;5.53;;;;;;;16.91;81.77;95749.44;1763922;81;20975;-59
2021/07/11 04:26:30;;;;;;;6.70;5.25;;;;;;;16.91;81.77;95749.44;1764206;81;21018;-59
2021/07/11 04:28:57;;;;;;;6.75;5.00;;;;;;;16.90;81.51;95742.35;1764045;81;21062;-59
2021/07/11 04:31:23;;;;;;;7.20;5.42;;;;;;;17.07;81.90;95745.66;1763924;81;20971;-59
2021/07/11 04:33:51;;;;;;;7.05;5.67;;;;;;;17.07;81.90;95745.66;1763740;81;21070;-59
2021/07/11 04:36:18;;;;;;;9.95;5.87;;;;;;;17.14;82.35;95739.15;1764310;81;21461;-59
2021/07/11 04:38:44;;;;;;;6.83;6.03;;;;;;;17.19;82.13;95748.30;1764016;81;20998;-59
2021/07/11 04:41:12;;;;;;;8.78;6.08;;;;;;;17.29;82.55;95745.16;1763623;81;21046;-59
2021/07/11 04:43:39;;;;;;;6.03;5.12;;;;;;;17.41;82.41;95745.55;1763647;81;21006;-59
2021/07/11 04:46:06;;;;;;;6.17;5.60;;;;;;;17.44;81.40;95745.45;1763763;81;21101;-59
2021/07/11 04:48:33;;;;;;;6.65;5.95;;;;;;;17.41;81.04;95744.22;1763506;81;21014;-59
2021/07/11 04:51:00;;;;;;;7.42;6.00;;;;;;;17.36;80.46;95740.45;1764179;81;21042;-59
2021/07/11 04:53:28;;;;;;;9.83;6.28;;;;;;;17.38;80.83;95737.69;1763592;81;21022;-59
2021/07/11 04:55:56;;;;;;;8.70;5.90;;;;;;;17.49;81.23;95738.12;1764105;81;21070;-59
2021/07/11 04:58:23;;;;;;;9.63;6.15;;;;;;;17.56;80.95;95742.22;1763674;81;21042;-59
2021/07/11 05:00:50;;;;;;;9.48;6.35;;;;;;;17.65;81.20;95739.64;1763589;81;21157;-59
2021/07/11 05:03:16;;;;;;;6.72;6.00;;;;;;;17.71;80.68;95745.58;1763736;81;21061;-59
2021/07/11 05:05:43;;;;;;;7.47;6.78;;;;;;;17.79;80.41;95745.68;1763744;81;21101;-59
2021/07/11 05:08:09;;;;;;;8.03;6.85;;;;;;;17.86;80.63;95745.84;1764094;81;20971;-59
2021/07/11 05:10:36;;;;;;;7.17;6.58;;;;;;;17.93;81.18;95736.16;1763512;81;21081;-59
2021/07/11 05:13:03;;;;;;;9.08;6.78;;;;;;;18.04;81.50;95741.03;1763795;81;21026;-59
2021/07/11 05:15:29;;;;;;;7.58;6.20;;;;;;;18.15;80.93;95741.87;1763493;81;21002;-59
2021/07/11 05:17:56;;;;;;;7.72;6.35;;;;;;;18.25;80.87;95734.30;1767494;81;21042;-59
2021/07/11 05:20:23;;;;;;;9.03;6.47;;;;;;;18.36;80.18;95737.31;1770530;81;21555;-59
2021/07/11 05:22:49;;;;;;;7.33;6.20;;;;;;;18.48;80.39;95734.55;1770342;81;21030;-59
2021/07/11 05:25:15;;;;;;;7.83;6.47;;;;;;;18.62;79.63;95735.21;1770506;81;21480;-59
2021/07/11 05:27:42;;;;;;;7.00;6.08;;;;;;;18.69;78.74;95726.82;1770359;81;21156;-59
2021/07/11 05:30:11;;;;;;;7.72;5.87;;;;;;;18.75;78.59;95729.25;1770856;81;20986;-59
2021/07/11 05:32:37;;;;;;;6.22;5.65;;;;;;;18.90;78.79;95726.74;1770558;81;21500;-59
2021/07/11 05:35:05;;;;;;;6.50;5.83;;;;;;;18.98;78.06;95732.13;1770743;81;21002;-59
2021/07/11 05:37:32;;;;;;;8.58;5.90;;;;;;;19.13;78.43;95721.14;1770822;81;20967;-59
2021/07/11 05:39:58;;;;;;;6.85;6.15;;;;;;;19.33;78.72;95717.94;1770504;81;21555;-59
2021/07/11 05:42:25;;;;;;;7.35;5.83;;;;;;;19.54;78.73;95719.48;1770328;81;21105;-59
2021/07/11 05:44:52;;;;;;;6.50;5.28;;;;;;;19.73;78.34;95719.44;1770365;81;21066;-59
2021/07/11 05:47:18;;;;;;;6.92;5.50;;;;;;;19.92;78.48;95717.11;1770459;81;21070;-59
2021/07/11 05:49:44;;;;;;;7.00;5.60;;;;;;;20.04;77.93;95716.45;1770741;81;20998;-59
2021/07/11 05:52:11;;;;;;;6.92;5.22;;;;;;;20.15;77.00;95714.05;1770569;81;21011;-59
2021/07/11 05:54:37;;;;;;;6.15;5.47;;;;;;;20.20;76.32;95716.00;1770731;81;20997;-59
2021/07/11 05:57:04;;;;;;;5.97;5.20;;;;;;;20.33;75.91;95713.51;1770317;81;21571;-59
2021/07/11 05:59:31;;;;;;;7.70;5.65;;;;;;;20.44;76.24;95707.58;1770542;81;21042;-59
2021/07/11 06:01:57;;;;;;;6.37;5.58;;;;;;;20.59;75.59;95705.86;1770296;81;21116;-59
2021/07/11 06:04:24;;;;;;;6.47;5.87;;;;;;;20.74;75.47;95702.34;1770713;81;21025;-59
2021/07/11 06:06:50;;;;;;;6.28;5.78;;;;;;;20.89;72.80;95700.56;1770246;81;21059;-59
2021/07/11 06:09:17;;;;;;;7.72;5.90;;;;;;;20.99;73.53;95699.11;1770535;81;21033;-59
2021/07/11 06:11:44;;;;;;;6.47;5.87;;;;;;;21.03;73.70;95696.62;1770338;81;20998;-59
2021/07/11 06:14:14;;;;;;;7.42;6.28;;;;;;;21.09;73.90;95697.62;1770178;81;21038;-59
2021/07/11 06:16:41;;;;;;;13.10;6.37;;;;;;;21.22;73.75;95695.53;1770703;81;21468;-59
2021/07/11 06:19:07;;;;;;;7.60;6.28;;;;;;;21.33;73.40;95695.29;1770262;81;21543;-59
2021/07/11 06:21:34;;;;;;;7.37;6.67;;;;;;;21.50;73.81;95692.13;1770203;81;21563;-59
2021/07/11 06:24:01;;;;;;;8.40;6.40;;;;;;;21.62;73.20;95696.75;1770305;81;20994;-59
2021/07/11 06:26:28;;;;;;;11.95;6.70;;;;;;;21.75;72.72;95685.64;1770333;81;21077;-59
2021/07/11 06:28:55;;;;;;;11.18;6.62;;;;;;;21.91;71.92;95688.72;1770233;81;21022;-60
2021/07/11 06:31:22;;;;;;;9.08;5.95;;;;;;;21.99;71.46;95676.52;1770347;81;21087;-59
2021/07/11 06:33:48;;;;;;;9.48;6.35;;;;;;;22.09;69.85;95683.53;1770600;81;20974;-59
2021/07/11 06:36:15;;;;;;;9.70;6.05;;;;;;;22.16;67.56;95677.30;1770925;81;21014;-59
2021/07/11 06:38:42;;;;;;;8.18;6.25;;;;;;;22.24;68.39;95680.40;1770609;81;21018;-59
2021/07/11 06:41:08;;;;;;;6.20;5.70;;;;;;;22.32;68.35;95678.08;1770034;81;21571;-59
2021/07/11 06:43:37;;;;;;;7.37;5.30;;;;;;;22.37;67.25;95676.44;1770308;81;20990;-59
2021/07/11 06:46:04;;;;;;;6.22;5.72;;;;;;;22.37;64.24;95676.44;1770503;81;21094;-59
2021/07/11 06:48:31;;;;;;;7.92;6.30;;;;;;;22.44;66.74;95679.98;1770222;81;21069;-59
2021/07/11 06:50:58;;;;;;;7.90;6.50;;;;;;;22.52;67.45;95685.36;1770331;81;21034;-59
2021/07/11 06:53:26;;;;;;;6.67;5.95;;;;;;;22.62;67.70;95683.31;1770297;81;21536;-59
2021/07/11 06:55:53;;;;;;;6.95;6.08;;;;;;;22.67;65.73;95683.02;1770334;81;21511;-59
2021/07/11 06:58:19;;;;;;;11.80;6.50;;;;;;;22.82;67.40;95688.73;1770315;81;21505;-59
2021/07/11 07:00:46;;;;;;;6.78;6.25;;;;;;;22.97;67.26;95679.28;1738265;81;21046;-59
2021/07/11 07:03:13;;;;;;;7.40;6.25;;;;;;;23.09;67.73;95686.09;1770196;81;21022;-59
2021/07/11 07:05:40;;;;;;;7.03;5.78;;;;;;;23.21;67.37;95683.52;1770396;81;21101;-59
2021/07/11 07:08:07;;;;;;;7.28;6.42;;;;;;;23.22;62.92;95679.88;1770330;81;21018;-59
2021/07/11 07:10:33;;;;;;;7.30;6.40;;;;;;;23.31;64.00;95677.92;1770330;81;21038;-59
2021/07/11 07:13:00;;;;;;;11.95;6.58;;;;;;;23.46;65.10;95682.27;1770744;81;21508;-59
2021/07/11 07:15:26;;;;;;;7.62;6.75;;;;;;;23.49;63.46;95676.66;1770573;81;20986;-59
2021/07/11 07:17:54;;;;;;;7.15;6.55;;;;;;;23.50;62.67;95667.60;1770425;81;21022;-59
2021/07/11 07:20:20;;;;;;;9.23;6.45;;;;;;;23.59;63.92;95672.86;1770358;81;21037;-59
2021/07/11 07:22:47;;;;;;;7.05;6.35;;;;;;;23.71;63.82;95673.36;1770113;81;21090;-61
2021/07/11 07:25:17;;;;;;;9.65;6.00;;;;;;;23.84;64.96;95676.55;1770395;81;21073;-59
2021/07/11 07:27:45;;;;;;;8.98;6.33;;;;;;;23.96;63.63;95677.05;1770586;81;21106;-59
2021/07/11 07:30:15;;;;;;;7.80;5.90;;;;;;;24.03;63.91;95681.03;1770602;81;21568;-59
2021/07/11 07:32:42;;;;;;;7.08;6.37;;;;;;;24.06;61.42;95679.47;1749871;81;21065;-59
2021/07/11 07:35:09;;;;;;;6.95;6.28;;;;;;;24.08;61.13;95684.27;1770915;81;21009;-59
2021/07/11 07:37:36;;;;;;;7.20;6.50;;;;;;;24.22;62.32;95684.66;1770701;81;21029;-59
2021/07/11 07:40:05;;;;;;;7.58;6.90;;;;;;;24.34;61.15;95682.42;1770403;81;21547;-59
2021/07/11 07:42:32;;;;;;;7.17;6.47;;;;;;;24.48;61.80;95680.10;1770751;81;20990;-59
2021/07/11 07:44:59;;;;;;;9.65;6.75;;;;;;;24.59;61.94;95675.27;1770735;81;20982;-59
2021/07/11 07:47:27;;;;;;;7.40;6.75;;;;;;;24.76;63.53;95681.64;1770798;81;21021;-59
2021/07/11 07:49:54;;;;;;;7.03;6.33;;;;;;;24.91;63.54;95678.80;1770779;81;21021;-59
2021/07/11 07:52:21;;;;;;;8.53;6.12;;;;;;;25.07;62.29;95674.45;1770373;81;21064;-59
2021/07/11 07:54:48;;;;;;;8.05;6.90;;;;;;;25.20;61.49;95670.77;1770798;81;21508;-59
2021/07/11 07:57:18;;;;;;;7.85;6.35;;;;;;;25.36;62.82;95670.45;1770889;81;21002;-59
2021/07/11 07:59:44;;;;;;;8.20;6.40;;;;;;;25.50;60.36;95667.17;1770255;81;21085;-59
2021/07/11 08:02:11;;;;;;;8.95;6.55;;;;;;;25.59;60.93;95664.63;1770763;81;21033;-59
2021/07/11 08:04:37;;;;;;;6.60;5.80;;;;;;;25.72;61.74;95665.89;1770696;81;21552;-59
2021/07/11 08:07:04;;;;;;;10.30;6.00;;;;;;;25.81;59.81;95667.89;1770322;81;21034;-59
2021/07/11 08:09:31;;;;;;;7.90;6.28;;;;;;;25.83;56.78;95662.34;1771002;81;20990;-59
2021/07/11 08:11:58;;;;;;;6.85;6.08;;;;;;;25.96;59.12;95665.86;1770333;81;21037;-59
2021/07/11 08:14:24;;;;;;;7.05;6.40;;;;;;;26.07;59.53;95665.86;1770705;81;21009;-59
2021/07/11 08:16:51;;;;;;;8.95;6.62;;;;;;;26.17;57.97;95659.73;1770355;81;21027;-59
2021/07/11 08:19:18;;;;;;;7.12;6.37;;;;;;;26.27;58.15;95661.57;1765471;81;21098;-59
2021/07/11 08:21:45;;;;;;;7.65;6.35;;;;;;;26.43;59.57;95660.34;1763638;81;21050;-59
2021/07/11 08:24:11;;;;;;;7.33;6.55;;;;;;;26.54;59.68;95659.02;1735974;81;21030;-59
2021/07/11 08:26:38;;;;;;;9.43;6.72;;;;;;;26.59;58.30;95654.59;1763571;81;21022;-59
2021/07/11 08:29:05;;;;;;;8.40;6.55;;;;;;;26.63;58.12;95660.96;1763931;81;21078;-59
2021/07/11 08:31:31;;;;;;;6.47;5.87;;;;;;;26.71;58.67;95658.52;1763581;81;21038;-59
2021/07/11 08:33:58;;;;;;;7.47;6.65;;;;;;;26.78;59.23;95669.68;1763763;81;21057;-59
2021/07/11 08:36:27;;;;;;;7.47;6.67;;;;;;;26.83;59.07;95667.45;1763724;81;21074;-59
2021/07/11 08:38:53;;;;;;;9.40;6.17;;;;;;;26.87;58.85;95663.52;1764105;81;21038;-59
2021/07/11 08:41:20;;;;;;;7.90;7.20;;;;;;;26.97;60.37;95658.20;1764073;81;21527;-59
2021/07/11 08:43:47;;;;;;;8.35;6.90;;;;;;;27.06;59.94;95658.77;1763828;81;21038;-59
2021/07/11 08:46:14;;;;;;;20.55;7.12;;;;;;;27.04;58.06;95654.47;1763420;81;21085;-59
2021/07/11 08:48:42;;;;;;;7.12;6.42;;;;;;;27.00;58.46;95654.38;1763820;81;21051;-59
2021/07/11 08:51:10;;;;;;;6.92;6.33;;;;;;;27.07;58.64;95651.03;1763634;81;21141;-59
2021/07/11 08:53:38;;;;;;;6.80;6.20;;;;;;;27.15;58.64;95655.31;1763984;81;21500;-59
2021/07/11 08:56:17;;;;;;;7.92;6.85;;;;;;;27.12;56.91;95655.57;1763817;81;21074;-59
2021/07/11 08:58:51;;;;;;;8.33;6.47;;;;;;;27.19;57.05;95656.81;1764052;81;20991;-59
2021/07/11 09:01:21;;;;;;;7.80;6.87;;;;;;;27.33;57.36;95652.08;1763238;81;21069;-59
2021/07/11 09:04:11;;;;;;;9.08;7.28;;;;;;;27.47;57.68;95649.53;1763746;81;21527;-59
2021/07/11 09:06:45;;;;;;;8.03;6.60;;;;;;;27.54;56.18;95646.20;1763979;81;21030;-59
2021/07/11 09:09:22;;;;;;;7.78;6.72;;;;;;;27.49;55.99;95639.43;1763619;81;21137;-60
2021/07/11 09:12:03;;;;;;;8.28;7.22;;;;;;;27.61;55.94;95634.31;1764035;81;21014;-59
2021/07/11 09:14:32;;;;;;;8.10;6.87;;;;;;;27.74;57.65;95632.27;1763859;81;21465;-59
2021/07/11 09:17:02;;;;;;;9.03;7.10;;;;;;;27.82;55.82;95635.22;1763754;81;21090;-59
2021/07/11 09:19:34;;;;;;;7.87;7.12;;;;;;;27.96;55.74;95630.44;1768463;81;21033;-59
2021/07/11 09:22:08;;;;;;;9.23;6.95;;;;;;;28.09;56.46;95635.14;1770821;81;21025;-62
2021/07/11 09:24:38;;;;;;;8.28;7.05;;;;;;;28.17;55.89;95632.64;1770600;81;21054;-59
2021/07/11 09:27:14;;;;;;;7.70;6.72;;;;;;;28.24;54.97;95627.51;1749521;81;21053;-59
2021/07/11 09:29:43;;;;;;;8.88;7.72;;;;;;;28.31;55.90;95632.76;1770229;81;21010;-59
2021/07/11 09:32:24;;;;;;;8.95;7.10;;;;;;;28.32;55.13;95631.75;1770514;81;21026;-59
2021/07/11 09:34:50;;;;;;;7.25;6.45;;;;;;;28.38;54.16;95638.00;1770033;81;21061;-59
2021/07/11 09:37:18;;;;;;;9.28;6.90;;;;;;;28.43;55.45;95632.17;1770629;81;21025;-59
2021/07/11 09:39:55;;;;;;;9.00;6.60;;;;;;;28.61;55.37;95632.41;1771314;81;21034;-59
2021/07/11 09:42:44;;;;;;;10.35;6.58;;;;;;;28.70;53.44;95623.41;1770720;81;21021;-59
2021/07/11 09:45:23;;;;;;;7.95;7.12;;;;;;;28.68;52.65;95609.99;1770520;81;21441;-60
2021/07/11 09:47:54;;;;;;;8.45;6.62;;;;;;;28.80;52.66;95614.78;1770671;81;21042;-59
2021/07/11 09:50:23;;;;;;;11.55;6.53;;;;;;;28.91;53.58;95614.68;1738563;81;21543;-59
2021/07/11 09:52:54;;;;;;;11.53;6.62;;;;;;;28.97;52.83;95619.19;1770700;81;21094;-59
2021/07/11 09:55:25;;;;;;;6.80;6.30;;;;;;;28.99;49.36;95626.20;1770674;81;20993;-59
2021/07/11 09:57:59;;;;;;;6.83;6.22;;;;;;;29.04;50.81;95636.14;1770463;81;21069;-60
2021/07/11 10:00:30;;;;;;;8.25;5.97;;;;;;;29.09;49.95;95637.11;1770038;81;20998;-59
2021/07/11 10:03:01;;;;;;;6.95;6.20;;;;;;;29.11;49.28;95625.61;1770731;81;21086;-59
2021/07/11 10:05:30;;;;;;;8.15;7.30;;;;;;;29.17;49.43;95616.88;1770287;81;21492;-59
2021/07/11 10:07:58;;;;;;;11.70;6.87;;;;;;;29.37;50.84;95602.80;1770680;81;21531;-59
2021/07/11 10:10:28;;;;;;;9.03;6.75;;;;;;;29.57;53.21;95607.72;1770630;81;20979;-59
2021/07/11 10:12:56;;;;;;;8.50;6.92;;;;;;;29.66;51.02;95606.01;1770545;81;21029;-59
2021/07/11 10:15:27;;;;;;;7.80;7.00;;;;;;;29.71;47.97;95605.95;1770449;81;20998;-60
2021/07/11 10:18:05;;;;;;;9.70;6.67;;;;;;;29.70;47.86;95610.17;1770405;81;21074;-59
2021/07/11 10:20:39;;;;;;;9.48;6.40;;;;;;;29.83;47.51;95615.30;1770170;81;21070;-59
2021/07/11 10:23:08;;;;;;;8.53;6.87;;;;;;;29.89;46.82;95623.74;1770721;81;21333;-59
2021/07/11 10:25:38;;;;;;;7.03;6.37;;;;;;;30.01;47.55;95635.80;1770552;81;21002;-59
2021/07/11 10:28:12;;;;;;;8.88;6.62;;;;;;;30.18;47.28;95645.41;1771008;81;21021;-60
2021/07/11 10:30:44;;;;;;;8.53;6.80;;;;;;;30.16;44.86;95645.20;1770436;81;21558;-60
2021/07/11 10:33:19;;;;;;;8.28;6.67;;;;;;;29.91;46.38;95643.98;1770490;81;21025;-60
2021/07/11 10:35:59;;;;;;;7.25;6.65;;;;;;;29.51;46.27;95640.43;1770710;81;21094;-59
2021/07/11 10:38:51;;;;;;;6.75;6.15;;;;;;;29.08;47.27;95630.83;1770897;81;21022;-59
2021/07/11 10:41:28;;;;;;;7.30;6.50;;;;;;;28.82;48.67;95627.73;1770991;81;21145;-59
2021/07/11 10:44:11;;;;;;;7.28;6.53;;;;;;;28.52;49.46;95637.30;1769984;81;21022;-59
2021/07/11 10:46:55;;;;;;;9.68;7.10;;;;;;;28.26;50.28;95652.16;1770617;81;21033;-59
2021/07/11 10:49:25;;;;;;;8.98;7.22;;;;;;;28.02;50.98;95655.66;1770330;81;21058;-59
2021/07/11 10:51:58;;;;;;;10.28;7.00;;;;;;;27.85;51.95;95669.84;1770116;81;21006;-59
2021/07/11 10:54:53;;;;;;;7.97;7.17;;;;;;;27.68;53.52;95673.47;1770472;81;21082;-59
2021/07/11 10:57:36;;;;;;;8.25;7.20;;;;;;;27.51;56.45;95678.11;1770817;81;21545;-59
2021/07/11 11:00:23;;;;;;;8.35;7.45;;;;;;;27.21;58.00;95674.77;1770988;81;21025;-59
2021/07/11 11:02:52;;;;;;;7.90;7.10;;;;;;;27.00;58.15;95668.77;1770608;81;20990;-59
2021/07/11 11:05:25;;;;;;;7.60;6.80;;;;;;;26.81;59.59;95663.16;1770934;81;21484;-59
2021/07/11 11:08:11;;;;;;;8.58;7.28;;;;;;;26.70;60.54;95654.56;1770757;81;21005;-59
2021/07/11 11:10:43;;;;;;;8.78;7.67;;;;;;;26.54;60.66;95640.94;1770767;81;21010;-59
2021/07/11 11:13:21;;;;;;;9.45;7.40;;;;;;;26.37;62.46;95641.91;1770826;81;21069;-59
2021/07/11 11:15:57;;;;;;;10.45;7.35;;;;;;;26.17;63.33;95648.41;1770661;81;21010;-59
2021/07/11 11:18:33;;;;;;;10.90;7.65;;;;;;;26.15;63.83;95654.44;1770756;81;21595;-59
2021/07/11 11:21:17;;;;;;;9.03;7.45;;;;;;;26.17;64.02;95652.47;1770713;81;21046;-59
2021/07/11 11:23:48;;;;;;;9.40;7.95;;;;;;;26.18;64.32;95650.13;1770940;81;20983;-59
2021/07/11 11:26:30;;;;;;;8.85;7.95;;;;;;;26.21;64.09;95654.45;1749356;81;21045;-59
2021/07/11 11:28:59;;;;;;;10.70;8.18;;;;;;;26.23;64.00;95650.65;1751151;81;21169;-59
2021/07/11 11:31:30;;;;;;;8.18;7.35;;;;;;;26.25;64.95;95654.06;1770643;81;20997;-59
2021/07/11 11:34:10;;;;;;;9.85;7.67;;;;;;;26.22;65.34;95641.30;1770693;81;21049;-59
2021/07/11 11:36:49;;;;;;;8.93;8.08;;;;;;;26.20;64.73;95638.70;1770317;81;21013;-59
2021/07/11 11:39:31;;;;;;;10.75;7.78;;;;;;;26.20;65.25;95641.41;1770739;81;21017;-59
2021/07/11 11:42:00;;;;;;;9.50;8.10;;;;;;;26.15;66.03;95648.17;1770709;81;21093;-59
2021/07/11 11:44:27;;;;;;;8.10;7.40;;;;;;;26.14;66.37;95644.61;1770605;80;21037;-59